createdAt,value
2022-12-18T00:01:51.026Z,13.98
2022-12-18T00:04:22.831Z,14.43
2022-12-18T00:06:50.577Z,13.05
2022-12-18T00:09:18.278Z,12.57
2022-12-18T00:11:45.499Z,14.30
2022-12-18T00:14:14.107Z,13.05
2022-12-18T00:16:41.986Z,13.82
2022-12-18T00:19:11.474Z,13.20
2022-12-18T00:21:38.683Z,13.65
2022-12-18T00:24:05.992Z,14.40
2022-12-18T00:26:34.218Z,13.63
2022-12-18T00:29:04.395Z,14.75
2022-12-18T00:31:33.236Z,14.88
2022-12-18T00:34:02.289Z,14.00
2022-12-18T00:36:31.011Z,14.48
2022-12-18T00:38:58.914Z,13.98
2022-12-18T00:41:45.235Z,14.40
2022-12-18T00:44:13.541Z,13.57
2022-12-18T00:46:41.381Z,13.25
2022-12-18T00:49:08.945Z,14.73
2022-12-18T00:51:36.467Z,13.82
2022-12-18T00:54:04.047Z,14.25
2022-12-18T00:56:31.739Z,13.48
2022-12-18T00:58:58.944Z,13.68
2022-12-18T01:01:26.302Z,13.48
2022-12-18T01:03:53.647Z,15.10
2022-12-18T01:06:21.026Z,15.15
2022-12-18T01:08:48.265Z,14.00
2022-12-18T01:11:17.086Z,14.43
2022-12-18T01:13:44.471Z,14.60
2022-12-18T01:16:15.818Z,14.20
2022-12-18T01:18:43.407Z,13.90
2022-12-18T01:21:11.599Z,14.20
2022-12-18T01:23:39.342Z,13.38
2022-12-18T01:26:11.267Z,14.80
2022-12-18T01:28:39.223Z,13.75
2022-12-18T01:31:15.745Z,16.00
2022-12-18T01:33:43.042Z,14.68
2022-12-18T01:36:15.961Z,13.77
2022-12-18T01:38:43.286Z,14.43
2022-12-18T01:41:11.566Z,13.23
2022-12-18T01:43:50.402Z,13.30
2022-12-18T01:46:19.294Z,13.50
2022-12-18T01:48:48.494Z,13.65
2022-12-18T01:51:16.000Z,13.57
2022-12-18T01:53:44.088Z,14.57
2022-12-18T01:56:14.376Z,13.38
2022-12-18T01:58:54.355Z,14.63
2022-12-18T02:01:23.742Z,13.85
2022-12-18T02:03:51.153Z,13.45
2022-12-18T02:06:23.534Z,14.23
2022-12-18T02:09:01.949Z,14.43
2022-12-18T02:11:41.247Z,14.48
2022-12-18T02:14:22.965Z,14.90
2022-12-18T02:16:57.123Z,14.45
2022-12-18T02:19:24.414Z,13.88
2022-12-18T02:21:56.765Z,15.40
2022-12-18T02:24:45.891Z,14.40
2022-12-18T02:27:13.447Z,13.50
2022-12-18T02:29:50.576Z,14.93
2022-12-18T02:32:24.450Z,13.98
2022-12-18T02:34:52.891Z,14.10
2022-12-18T02:37:23.290Z,13.95
2022-12-18T02:39:52.848Z,14.32
2022-12-18T02:42:21.311Z,15.23
2022-12-18T02:44:50.750Z,14.27
2022-12-18T02:47:25.121Z,13.90
2022-12-18T02:50:15.709Z,13.98
2022-12-18T02:53:01.542Z,13.63
2022-12-18T02:55:31.886Z,13.82
2022-12-18T02:58:14.470Z,13.98
2022-12-18T03:01:00.355Z,13.18
2022-12-18T03:03:31.813Z,13.30
2022-12-18T03:06:01.783Z,13.05
2022-12-18T03:08:30.936Z,14.48
2022-12-18T03:11:07.831Z,12.52
2022-12-18T03:13:57.147Z,13.13
2022-12-18T03:16:26.108Z,14.02
2022-12-18T03:18:55.691Z,14.68
2022-12-18T03:21:27.347Z,13.23
2022-12-18T03:23:55.206Z,14.10
2022-12-18T03:26:27.478Z,14.43
2022-12-18T03:29:01.050Z,13.63
2022-12-18T03:31:30.257Z,14.65
2022-12-18T03:34:03.035Z,13.60
2022-12-18T03:36:39.192Z,13.68
2022-12-18T03:39:06.838Z,13.02
2022-12-18T03:41:50.582Z,13.50
2022-12-18T03:46:53.765Z,13.13
2022-12-18T03:49:27.448Z,12.77
2022-12-18T03:52:01.443Z,13.02
2022-12-18T03:54:30.054Z,11.95
2022-12-18T03:57:11.623Z,12.30
2022-12-18T03:59:39.496Z,13.52
2022-12-18T04:02:10.247Z,12.80
2022-12-18T04:04:40.299Z,12.90
2022-12-18T04:07:08.567Z,13.02
2022-12-18T04:09:40.524Z,13.73
2022-12-18T04:12:10.174Z,11.85
2022-12-18T04:14:37.586Z,13.77
2022-12-18T04:17:08.845Z,11.80
2022-12-18T04:19:36.338Z,13.40
2022-12-18T04:22:04.307Z,12.27
2022-12-18T04:24:39.718Z,12.10
2022-12-18T04:27:16.885Z,12.98
2022-12-18T04:29:48.407Z,12.35
2022-12-18T04:32:16.660Z,12.73
2022-12-18T04:34:45.313Z,13.40
2022-12-18T04:37:12.739Z,12.45
2022-12-18T04:39:40.265Z,12.90
2022-12-18T04:42:14.247Z,12.05
2022-12-18T04:44:41.459Z,11.73
2022-12-18T04:47:08.958Z,12.60
2022-12-18T04:49:36.229Z,12.48
2022-12-18T04:52:03.565Z,11.57
2022-12-18T04:54:30.845Z,12.07
2022-12-18T04:56:58.097Z,11.30
2022-12-18T04:59:25.335Z,11.32
2022-12-18T05:01:52.694Z,11.70
2022-12-18T05:04:21.313Z,11.88
2022-12-18T05:06:48.538Z,10.70
2022-12-18T05:09:15.970Z,11.18
2022-12-18T05:11:43.779Z,11.50
2022-12-18T05:14:11.086Z,9.90
2022-12-18T05:16:38.390Z,11.02
2022-12-18T05:19:05.595Z,10.93
2022-12-18T05:21:35.534Z,11.02
2022-12-18T05:24:30.588Z,10.70
2022-12-18T05:27:10.550Z,10.57
2022-12-18T05:29:37.907Z,9.45
2022-12-18T05:32:05.344Z,10.32
2022-12-18T05:34:34.254Z,10.38
2022-12-18T05:37:01.558Z,10.43
2022-12-18T05:39:28.783Z,9.98
2022-12-18T05:41:56.093Z,10.13
2022-12-18T05:44:23.335Z,10.50
2022-12-18T05:46:50.547Z,9.35
2022-12-18T05:49:17.810Z,10.38
2022-12-18T05:51:45.188Z,9.95
2022-12-18T05:54:12.408Z,9.90
2022-12-18T05:56:42.956Z,8.68
2022-12-18T05:59:12.797Z,8.65
2022-12-18T06:01:40.109Z,9.38
2022-12-18T06:04:07.483Z,9.35
2022-12-18T06:06:34.780Z,9.00
2022-12-18T06:09:09.029Z,9.98
2022-12-18T06:11:36.777Z,9.20
2022-12-18T06:14:04.530Z,9.63
2022-12-18T06:16:32.441Z,9.15
2022-12-18T06:19:00.443Z,8.85
2022-12-18T06:21:28.162Z,8.52
2022-12-18T06:23:55.478Z,9.05
2022-12-18T06:26:27.857Z,9.20
2022-12-18T06:28:55.507Z,8.93
2022-12-18T06:31:22.823Z,8.20
2022-12-18T06:33:50.138Z,7.72
2022-12-18T06:36:17.683Z,9.27
2022-12-18T06:38:45.586Z,9.25
2022-12-18T06:41:14.284Z,8.60
2022-12-18T06:43:41.858Z,8.88
2022-12-18T06:46:09.982Z,8.43
2022-12-18T06:48:37.288Z,8.88
2022-12-18T06:51:04.730Z,8.05
2022-12-18T06:53:32.977Z,8.10
2022-12-18T06:56:09.462Z,8.77
2022-12-18T06:58:40.892Z,8.50
2022-12-18T07:01:13.423Z,9.02
2022-12-18T07:03:43.008Z,9.00
2022-12-18T07:06:18.397Z,8.65
2022-12-18T07:08:47.312Z,8.48
2022-12-18T07:11:16.438Z,8.75
2022-12-18T07:13:44.195Z,8.25
2022-12-18T07:16:24.670Z,8.07
2022-12-18T07:18:52.935Z,9.05
2022-12-18T07:21:21.039Z,9.15
2022-12-18T07:23:49.659Z,8.20
2022-12-18T07:26:19.106Z,9.18
2022-12-18T07:28:46.328Z,8.20
2022-12-18T07:31:15.483Z,8.23
2022-12-18T07:33:43.253Z,7.75
2022-12-18T07:36:11.816Z,8.35
2022-12-18T07:38:39.136Z,9.43
2022-12-18T07:41:13.726Z,8.27
2022-12-18T07:43:41.928Z,9.73
2022-12-18T07:46:10.281Z,8.18
2022-12-18T07:48:37.597Z,8.85
2022-12-18T07:51:06.044Z,8.15
2022-12-18T07:53:33.859Z,7.57
2022-12-18T07:56:25.894Z,8.13
2022-12-18T07:58:49.154Z,8.23
2022-12-18T08:01:16.475Z,8.13
2022-12-18T08:03:44.556Z,8.32
2022-12-18T08:06:12.052Z,8.45
2022-12-18T08:08:39.307Z,8.35
2022-12-18T08:11:06.659Z,7.97
2022-12-18T08:13:33.907Z,7.93
2022-12-18T08:16:05.743Z,7.93
2022-12-18T08:18:34.355Z,8.80
2022-12-18T08:21:22.899Z,7.82
2022-12-18T08:23:51.499Z,8.38
2022-12-18T08:26:19.408Z,8.48
2022-12-18T08:28:48.074Z,7.93
2022-12-18T08:31:15.542Z,7.72
2022-12-18T08:33:43.261Z,8.38
2022-12-18T08:36:11.617Z,8.90
2022-12-18T08:38:38.855Z,8.35
2022-12-18T08:41:10.941Z,8.32
2022-12-18T08:43:56.899Z,8.40
2022-12-18T08:46:25.978Z,8.63
2022-12-18T08:48:54.199Z,7.90
2022-12-18T08:51:21.527Z,8.93
2022-12-18T08:53:48.856Z,8.55
2022-12-18T08:56:16.399Z,9.90
2022-12-18T08:58:44.100Z,9.07
2022-12-18T09:01:12.855Z,8.90
2022-12-18T09:03:40.756Z,8.38
2022-12-18T09:06:08.766Z,8.43
2022-12-18T09:08:36.160Z,8.43
2022-12-18T09:11:03.368Z,8.57
2022-12-18T09:13:30.620Z,8.60
2022-12-18T09:15:57.887Z,8.50
2022-12-18T09:18:26.078Z,8.82
2022-12-18T09:20:53.845Z,8.27
2022-12-18T09:23:21.621Z,7.93
2022-12-18T09:25:48.939Z,8.93
2022-12-18T09:28:17.626Z,8.20
2022-12-18T09:30:49.896Z,9.18
2022-12-18T09:33:18.002Z,9.63
2022-12-18T09:35:45.869Z,8.95
2022-12-18T09:38:14.542Z,8.77
2022-12-18T09:40:44.607Z,8.93
2022-12-18T09:43:23.300Z,9.15
2022-12-18T09:45:53.840Z,9.15
2022-12-18T09:48:23.838Z,8.10
2022-12-18T09:50:52.203Z,8.48
2022-12-18T09:53:22.293Z,8.48
2022-12-18T09:55:50.207Z,8.05
2022-12-18T09:58:21.032Z,8.32
2022-12-18T10:00:48.255Z,8.27
2022-12-18T10:03:16.381Z,8.45
2022-12-18T10:05:44.254Z,8.55
2022-12-18T10:08:24.183Z,8.55
2022-12-18T10:10:53.385Z,8.57
2022-12-18T10:13:26.822Z,8.73
2022-12-18T10:15:58.733Z,9.02
2022-12-18T10:18:44.983Z,8.40
2022-12-18T10:21:14.768Z,8.05
2022-12-18T10:23:48.517Z,8.00
2022-12-18T10:26:16.391Z,8.50
2022-12-18T10:28:44.310Z,8.02
2022-12-18T10:31:17.931Z,8.15
2022-12-18T10:33:45.641Z,8.02
2022-12-18T10:36:13.359Z,8.38
2022-12-18T10:38:40.907Z,7.93
2022-12-18T10:41:29.545Z,8.68
2022-12-18T10:44:13.730Z,7.72
2022-12-18T10:46:41.088Z,7.78
2022-12-18T10:49:19.832Z,8.02
2022-12-18T10:51:47.135Z,7.53
2022-12-18T10:54:17.317Z,7.90
2022-12-18T10:56:44.851Z,7.75
2022-12-18T10:59:14.958Z,7.32
2022-12-18T11:01:50.339Z,8.02
2022-12-18T11:04:24.162Z,7.80
2022-12-18T11:07:01.931Z,7.68
2022-12-18T11:09:30.827Z,7.60
2022-12-18T11:12:00.236Z,7.72
2022-12-18T11:14:32.462Z,7.68
2022-12-18T11:19:53.874Z,7.65
2022-12-18T11:22:22.839Z,7.60
2022-12-18T11:27:56.183Z,8.98
2022-12-18T11:30:41.643Z,8.05
2022-12-18T11:33:14.144Z,8.10
2022-12-18T11:35:44.158Z,7.38
2022-12-18T11:38:26.723Z,6.90
2022-12-18T11:41:00.637Z,7.53
2022-12-18T11:43:39.183Z,7.88
2022-12-18T11:46:09.099Z,7.45
2022-12-18T11:51:05.640Z,6.65
2022-12-18T11:53:32.938Z,7.53
2022-12-18T11:56:07.004Z,7.00
2022-12-18T11:58:46.678Z,7.20
2022-12-18T12:01:44.018Z,6.55
2022-12-18T12:04:14.615Z,6.88
2022-12-18T12:06:47.978Z,7.90
2022-12-18T12:09:15.197Z,6.82
2022-12-18T12:11:54.428Z,7.18
2022-12-18T12:14:27.775Z,7.30
2022-12-18T12:17:21.470Z,7.78
2022-12-18T12:20:09.743Z,7.47
2022-12-18T12:22:38.835Z,8.10
2022-12-18T12:25:21.130Z,7.45
2022-12-18T12:27:54.813Z,7.53
2022-12-18T12:30:45.147Z,7.35
2022-12-18T12:33:15.372Z,7.63
2022-12-18T12:36:00.437Z,8.15
2022-12-18T12:38:51.732Z,7.85
2022-12-18T12:41:40.188Z,7.93
2022-12-18T12:44:10.141Z,7.95
2022-12-18T12:46:39.798Z,6.40
2022-12-18T12:49:13.660Z,7.53
2022-12-18T12:51:42.172Z,7.55
2022-12-18T12:54:23.655Z,7.55
2022-12-18T12:57:29.566Z,7.72
2022-12-18T13:00:04.685Z,7.57
2022-12-18T13:02:41.076Z,7.05
2022-12-18T13:05:11.520Z,7.00
2022-12-18T13:07:47.588Z,7.18
2022-12-18T13:10:20.905Z,8.40
2022-12-18T13:12:57.395Z,7.63
2022-12-18T13:15:27.406Z,6.90
2022-12-18T13:18:06.931Z,8.57
2022-12-18T13:20:35.504Z,9.10
2022-12-18T13:23:03.047Z,9.07
2022-12-18T13:25:38.375Z,9.10
2022-12-18T13:28:08.448Z,8.05
2022-12-18T13:30:35.705Z,9.25
2022-12-18T13:33:15.287Z,9.43
2022-12-18T13:35:43.870Z,9.80
2022-12-18T13:38:23.211Z,8.68
2022-12-18T13:40:50.610Z,7.63
2022-12-18T13:43:22.660Z,8.00
2022-12-18T13:46:12.120Z,8.18
2022-12-18T13:48:39.999Z,8.63
2022-12-18T13:51:12.616Z,7.90
2022-12-18T13:53:43.287Z,7.80
2022-12-18T13:56:11.218Z,8.13
2022-12-18T13:58:38.954Z,8.23
2022-12-18T14:01:06.836Z,7.50
2022-12-18T14:03:35.557Z,7.60
2022-12-18T14:06:05.738Z,8.32
2022-12-18T14:08:40.293Z,7.75
2022-12-18T14:11:08.627Z,8.20
2022-12-18T14:13:41.257Z,7.85
2022-12-18T14:16:09.429Z,8.60
2022-12-18T14:18:48.175Z,8.00
2022-12-18T14:21:23.346Z,8.18
2022-12-18T14:23:50.854Z,8.02
2022-12-18T14:26:22.946Z,7.57
2022-12-18T14:28:50.347Z,8.23
2022-12-18T14:31:21.856Z,8.07
2022-12-18T14:33:49.504Z,7.88
2022-12-18T14:36:18.510Z,8.00
2022-12-18T14:38:51.326Z,7.72
2022-12-18T14:41:19.535Z,7.70
2022-12-18T14:43:48.996Z,8.13
2022-12-18T14:46:32.012Z,7.97
2022-12-18T14:48:59.342Z,8.07
2022-12-18T14:51:27.516Z,7.93
2022-12-18T14:53:55.840Z,7.38
2022-12-18T14:56:23.552Z,9.10
2022-12-18T14:58:52.834Z,8.25
2022-12-18T15:01:38.336Z,7.93
2022-12-18T15:04:07.122Z,8.00
2022-12-18T15:06:38.858Z,7.97
2022-12-18T15:09:26.878Z,7.60
2022-12-18T15:11:58.886Z,8.50
2022-12-18T15:14:33.328Z,7.93
2022-12-18T15:17:01.741Z,7.75
2022-12-18T15:19:49.371Z,8.32
2022-12-18T15:22:19.748Z,8.27
2022-12-18T15:24:47.314Z,8.40
2022-12-18T15:27:22.531Z,7.78
2022-12-18T15:30:11.479Z,8.38
2022-12-18T15:32:39.280Z,8.15
2022-12-18T15:35:12.906Z,9.05
2022-12-18T15:37:40.304Z,8.27
2022-12-18T15:40:09.496Z,8.65
2022-12-18T15:42:55.468Z,8.70
2022-12-18T15:45:22.760Z,8.23
2022-12-18T15:47:51.378Z,8.25
2022-12-18T15:50:19.403Z,7.57
2022-12-18T15:52:48.074Z,9.13
2022-12-18T15:55:35.561Z,8.73
2022-12-18T15:58:03.743Z,9.07
2022-12-18T16:00:31.153Z,9.57
2022-12-18T16:02:58.629Z,8.55
2022-12-18T16:05:26.246Z,9.02
2022-12-18T16:07:53.508Z,10.60
2022-12-18T16:10:20.973Z,10.00
2022-12-18T16:12:48.409Z,10.63
2022-12-18T16:15:22.483Z,9.25
2022-12-18T16:17:52.618Z,10.13
2022-12-18T16:20:22.185Z,9.65
2022-12-18T16:22:50.547Z,10.00
2022-12-18T16:25:22.421Z,10.60
2022-12-18T16:27:50.090Z,10.55
2022-12-18T16:30:20.980Z,10.68
2022-12-18T16:32:48.612Z,10.43
2022-12-18T16:35:16.756Z,9.48
2022-12-18T16:37:44.338Z,9.38
2022-12-18T16:40:13.038Z,9.65
2022-12-18T16:42:41.314Z,9.32
2022-12-18T16:45:09.690Z,10.15
2022-12-18T16:47:37.035Z,9.50
2022-12-18T16:50:05.098Z,9.45
2022-12-18T16:52:32.754Z,9.73
2022-12-18T16:55:00.126Z,9.15
2022-12-18T16:57:27.897Z,9.73
2022-12-18T16:59:57.719Z,9.57
2022-12-18T17:02:29.129Z,9.95
2022-12-18T17:04:57.747Z,10.25
2022-12-18T17:07:25.734Z,10.55
2022-12-18T17:09:54.326Z,9.80
2022-12-18T17:12:22.540Z,9.95
2022-12-18T17:14:51.144Z,10.40
2022-12-18T17:17:21.956Z,10.80
2022-12-18T17:19:50.408Z,11.10
2022-12-18T17:22:17.675Z,9.65
2022-12-18T17:24:45.019Z,9.98
2022-12-18T17:27:12.370Z,9.63
2022-12-18T17:29:46.533Z,10.93
2022-12-18T17:32:15.036Z,10.10
2022-12-18T17:34:42.324Z,10.43
2022-12-18T17:37:09.894Z,9.77
2022-12-18T17:39:37.244Z,10.73
2022-12-18T17:42:05.346Z,11.05
2022-12-18T17:44:34.409Z,10.05
2022-12-18T17:47:01.963Z,10.88
2022-12-18T17:49:29.290Z,10.23
2022-12-18T17:51:56.581Z,9.68
2022-12-18T17:54:24.002Z,11.55
2022-12-18T17:56:51.395Z,11.13
2022-12-18T17:59:18.701Z,11.07
2022-12-18T18:01:46.262Z,11.38
2022-12-18T18:04:14.081Z,10.88
2022-12-18T18:06:41.522Z,10.88
2022-12-18T18:09:16.670Z,11.00
2022-12-18T18:12:03.547Z,11.15
2022-12-18T18:14:31.018Z,10.40
2022-12-18T18:17:03.905Z,10.38
2022-12-18T18:19:33.158Z,10.45
2022-12-18T18:22:01.433Z,10.90
2022-12-18T18:24:29.435Z,10.25
2022-12-18T18:26:56.732Z,10.57
2022-12-18T18:29:26.706Z,10.93
2022-12-18T18:31:55.347Z,10.70
2022-12-18T18:34:23.996Z,10.60
2022-12-18T18:36:52.469Z,10.65
2022-12-18T18:39:20.192Z,10.43
2022-12-18T18:41:48.189Z,11.90
2022-12-18T18:44:16.237Z,10.98
2022-12-18T18:46:43.574Z,11.10
2022-12-18T18:49:11.434Z,10.90
2022-12-18T18:51:40.068Z,11.45
2022-12-18T18:54:07.340Z,10.90
2022-12-18T18:57:12.026Z,10.55
2022-12-18T18:59:24.406Z,10.90
2022-12-18T19:01:58.832Z,11.32
2022-12-18T19:04:26.220Z,11.50
2022-12-18T19:06:53.518Z,11.70
2022-12-18T19:09:22.303Z,10.50
2022-12-18T19:12:08.272Z,11.57
2022-12-18T19:14:35.598Z,10.70
2022-12-18T19:17:02.813Z,10.90
2022-12-18T19:19:31.614Z,11.25
2022-12-18T19:21:58.854Z,11.70
2022-12-18T19:24:26.890Z,10.95
2022-12-18T19:26:54.179Z,10.93
2022-12-18T19:29:25.766Z,10.40
2022-12-18T19:31:53.077Z,11.35
2022-12-18T19:34:20.470Z,10.88
2022-12-18T19:36:47.717Z,10.50
2022-12-18T19:39:16.848Z,12.15
2022-12-18T19:41:44.670Z,11.27
2022-12-18T19:44:13.185Z,9.80
2022-12-18T19:46:42.075Z,10.80
2022-12-18T19:49:17.328Z,11.00
2022-12-18T19:51:46.049Z,11.07
2022-12-18T19:54:17.143Z,10.60
2022-12-18T19:56:45.240Z,10.45
2022-12-18T19:59:12.646Z,10.65
2022-12-18T20:01:39.957Z,11.10
2022-12-18T20:04:07.746Z,10.35
2022-12-18T20:06:36.934Z,10.80
2022-12-18T20:09:07.724Z,11.35
2022-12-18T20:11:42.106Z,10.68
2022-12-18T20:14:13.651Z,10.85
2022-12-18T20:16:41.196Z,10.32
2022-12-18T20:19:08.799Z,11.07
2022-12-18T20:21:37.512Z,10.90
2022-12-18T20:24:04.955Z,10.27
2022-12-18T20:26:32.202Z,11.40
2022-12-18T20:28:59.465Z,10.95
2022-12-18T20:31:26.783Z,11.45
2022-12-18T20:33:59.609Z,10.32
2022-12-18T20:36:29.566Z,11.23
2022-12-18T20:39:00.534Z,10.43
2022-12-18T20:41:37.602Z,10.70
2022-12-18T20:44:18.421Z,11.25
2022-12-18T20:46:55.351Z,11.20
2022-12-18T20:49:23.284Z,11.05
2022-12-18T20:51:51.533Z,10.65
2022-12-18T20:54:20.131Z,10.98
2022-12-18T20:56:47.407Z,11.07
2022-12-18T20:59:14.675Z,11.20
2022-12-18T21:01:42.632Z,11.38
2022-12-18T21:04:14.838Z,11.60
2022-12-18T21:06:50.775Z,10.95
2022-12-18T21:09:20.392Z,10.75
2022-12-18T21:12:06.200Z,11.25
2022-12-18T21:14:33.561Z,11.18
2022-12-18T21:17:02.012Z,11.23
2022-12-18T21:19:29.978Z,11.73
2022-12-18T21:21:57.863Z,11.13
2022-12-18T21:24:25.763Z,11.55
2022-12-18T21:26:54.508Z,11.45
2022-12-18T21:29:23.381Z,11.68
2022-12-18T21:31:50.916Z,11.10
2022-12-18T21:34:20.081Z,11.48
2022-12-18T21:36:47.694Z,11.80
2022-12-18T21:39:15.888Z,11.40
2022-12-18T21:42:01.879Z,11.35
2022-12-18T21:44:29.675Z,11.43
2022-12-18T21:47:04.567Z,10.70
2022-12-18T21:49:39.365Z,11.18
2022-12-18T21:52:06.764Z,11.32
2022-12-18T21:54:34.682Z,11.70
2022-12-18T21:57:03.238Z,10.52
2022-12-18T21:59:31.861Z,11.70
2022-12-18T22:02:00.650Z,11.45
2022-12-18T22:04:28.794Z,11.63
2022-12-18T22:06:57.225Z,11.60
2022-12-18T22:09:25.412Z,11.43
2022-12-18T22:11:53.139Z,11.80
2022-12-18T22:14:21.023Z,10.85
2022-12-18T22:16:48.310Z,11.45
2022-12-18T22:19:16.591Z,10.93
2022-12-18T22:21:45.784Z,12.25
2022-12-18T22:24:26.863Z,11.45
2022-12-18T22:26:57.291Z,11.57
2022-12-18T22:29:47.626Z,12.13
2022-12-18T22:32:29.456Z,11.48
2022-12-18T22:35:04.906Z,11.70
2022-12-18T22:37:34.472Z,11.57
2022-12-18T22:40:03.346Z,11.20
2022-12-18T22:42:31.919Z,11.23
2022-12-18T22:45:00.368Z,11.48
2022-12-18T22:47:30.060Z,11.95
2022-12-18T22:49:58.127Z,11.10
2022-12-18T22:52:25.631Z,11.30
2022-12-18T22:54:54.137Z,10.60
2022-12-18T22:57:22.218Z,10.93
2022-12-18T22:59:50.134Z,11.63
2022-12-18T23:02:20.886Z,12.10
2022-12-18T23:04:48.395Z,12.40
2022-12-18T23:07:16.355Z,10.77
2022-12-18T23:09:43.649Z,11.98
2022-12-18T23:12:17.835Z,11.65
2022-12-18T23:14:45.613Z,11.40
2022-12-18T23:17:12.838Z,10.90
2022-12-18T23:19:45.507Z,11.90
2022-12-18T23:22:15.966Z,11.55
2022-12-18T23:24:43.208Z,11.63
2022-12-18T23:27:11.920Z,12.10
2022-12-18T23:29:39.864Z,10.77
2022-12-18T23:32:07.353Z,11.32
2022-12-18T23:34:34.550Z,11.77
2022-12-18T23:37:03.682Z,11.73
2022-12-18T23:39:31.165Z,12.02
2022-12-18T23:41:59.600Z,10.75
2022-12-18T23:44:26.980Z,10.70
2022-12-18T23:46:54.358Z,12.32
2022-12-18T23:49:21.650Z,11.00
2022-12-18T23:51:49.237Z,11.25
2022-12-18T23:54:16.508Z,11.07
2022-12-18T23:56:43.796Z,11.63
2022-12-18T23:59:11.130Z,12.40
